Time;durP1;ratioP1;P1;durP2;ratioP2;P2;SDS_P1;SDS_P2;PMS_P1;PMS_P2;Temp;Humidity;BMP_temperature;BMP_pressure;BME280_temperature;BME280_humidity;BME280_pressure;Samples;Min_cycle;Max_cycle;Signal;HPM_P1;HPM_P2
2023/05/26 00:01:05;;;;;;;15.63;10.98;;;16.90;91.10;;;;;;5114361;28;20087;-69
2023/05/26 00:03:31;;;;;;;18.83;11.35;;;16.90;90.50;;;;;;5113690;28;20024;-69
2023/05/26 00:05:57;;;;;;;20.10;10.75;;;16.90;90.50;;;;;;5114132;28;20024;-69
2023/05/26 00:08:22;;;;;;;16.88;11.18;;;16.90;90.60;;;;;;5114237;28;20036;-68
2023/05/26 00:10:48;;;;;;;16.42;11.50;;;16.90;90.10;;;;;;5114341;28;20023;-70
2023/05/26 00:13:14;;;;;;;17.20;11.20;;;16.80;90.20;;;;;;5112538;28;20369;-70
2023/05/26 00:15:41;;;;;;;17.10;11.98;;;16.90;90.20;;;;;;5114377;28;20028;-69
2023/05/26 00:18:07;;;;;;;17.63;11.77;;;16.80;90.40;;;;;;5114150;28;20119;-69
2023/05/26 00:20:33;;;;;;;13.98;11.32;;;16.70;90.50;;;;;;5113710;28;20027;-69
2023/05/26 00:22:59;;;;;;;17.23;11.85;;;16.70;90.50;;;;;;5114389;28;20031;-69
2023/05/26 00:25:25;;;;;;;19.42;12.02;;;16.70;90.50;;;;;;5113329;28;20020;-69
2023/05/26 00:27:50;;;;;;;20.05;12.98;;;16.60;90.40;;;;;;5113691;28;20036;-70
2023/05/26 00:30:16;;;;;;;24.67;12.95;;;16.60;90.40;;;;;;5113599;28;20028;-71
2023/05/26 00:32:42;;;;;;;19.63;12.48;;;16.60;90.50;;;;;;5113746;28;20060;-70
2023/05/26 00:35:08;;;;;;;21.00;12.52;;;16.50;90.40;;;;;;5113820;28;20020;-69
2023/05/26 00:37:34;;;;;;;20.27;13.88;;;16.50;90.40;;;;;;5113255;28;20027;-69
2023/05/26 00:39:59;;;;;;;20.15;12.77;;;16.50;90.60;;;;;;5113758;28;20035;-69
2023/05/26 00:42:25;;;;;;;18.08;13.60;;;16.40;90.80;;;;;;5113232;28;20026;-69
2023/05/26 00:44:51;;;;;;;20.08;13.05;;;16.40;90.80;;;;;;5112480;28;20055;-69
2023/05/26 00:47:18;;;;;;;19.20;13.32;;;16.40;91.00;;;;;;5113295;28;20028;-71
2023/05/26 00:49:44;;;;;;;18.95;13.52;;;16.40;91.00;;;;;;5113597;28;20104;-69
2023/05/26 00:52:11;;;;;;;18.23;13.27;;;16.30;91.10;;;;;;5113573;28;20105;-69
2023/05/26 00:54:39;;;;;;;18.15;13.15;;;16.20;91.30;;;;;;5113157;28;20031;-69
2023/05/26 00:57:06;;;;;;;18.63;13.05;;;16.20;91.40;;;;;;5113570;28;20024;-69
2023/05/26 00:59:32;;;;;;;16.63;13.02;;;16.20;91.40;;;;;;5112717;28;20039;-69
2023/05/26 01:01:58;;;;;;;18.02;13.27;;;16.20;91.50;;;;;;5112780;28;20395;-69
2023/05/26 01:04:24;;;;;;;18.40;13.27;;;16.20;91.50;;;;;;5112829;28;20032;-69
2023/05/26 01:06:50;;;;;;;17.67;13.20;;;16.10;91.90;;;;;;5113407;28;20030;-69
2023/05/26 01:09:16;;;;;;;19.63;13.77;;;16.10;92.00;;;;;;5112002;28;20032;-69
2023/05/26 01:11:48;;;;;;;19.50;11.98;;;16.10;91.90;;;;;;5112798;28;20068;-69
2023/05/26 01:14:20;;;;;;;17.52;13.05;;;16.00;92.00;;;;;;5113343;28;20038;-69
2023/05/26 01:16:53;;;;;;;17.48;13.10;;;16.00;92.00;;;;;;5111185;28;20069;-69
2023/05/26 01:19:42;;;;;;;17.98;12.63;;;16.00;92.10;;;;;;5112987;28;20032;-72
2023/05/26 01:22:38;;;;;;;16.90;12.73;;;16.00;92.40;;;;;;5113145;28;20513;-70
2023/05/26 01:25:25;;;;;;;19.45;14.05;;;16.00;92.30;;;;;;5057962;28;20124;-70
2023/05/26 01:28:20;;;;;;;17.50;12.73;;;16.00;92.50;;;;;;5113167;28;20038;-69
2023/05/26 01:30:47;;;;;;;20.33;13.35;;;16.00;92.70;;;;;;5113300;28;20027;-70
2023/05/26 01:33:13;;;;;;;21.25;13.02;;;15.90;92.80;;;;;;5111470;28;20042;-69
2023/05/26 01:35:38;;;;;;;15.85;12.57;;;16.00;92.80;;;;;;5112665;28;20019;-70
2023/05/26 01:38:05;;;;;;;21.05;13.80;;;16.00;93.00;;;;;;5112968;28;20118;-68
2023/05/26 01:40:31;;;;;;;15.52;11.90;;;16.00;92.80;;;;;;5112718;28;20034;-69
2023/05/26 01:43:04;;;;;;;23.20;14.32;;;16.00;93.20;;;;;;5112909;28;20118;-68
2023/05/26 01:45:45;;;;;;;26.05;13.55;;;16.00;93.10;;;;;;5111141;28;20492;-68
2023/05/26 01:48:14;;;;;;;20.08;14.35;;;15.90;93.20;;;;;;5113325;28;20028;-67
2023/05/26 01:50:56;;;;;;;18.52;13.10;;;15.90;93.50;;;;;;5112448;28;20531;-70
2023/05/26 01:53:26;;;;;;;21.05;13.90;;;16.00;93.60;;;;;;5112354;28;20476;-69
2023/05/26 01:55:57;;;;;;;18.70;13.50;;;15.90;93.80;;;;;;5114907;28;20051;-69
2023/05/26 01:58:25;;;;;;;19.55;13.70;;;15.90;93.80;;;;;;5116471;28;20122;-73
2023/05/26 02:00:52;;;;;;;19.35;14.05;;;15.80;94.10;;;;;;5116660;28;20110;-69
2023/05/26 02:03:18;;;;;;;18.45;13.32;;;15.70;94.70;;;;;;5116685;28;20024;-69
2023/05/26 02:05:45;;;;;;;18.15;13.30;;;15.80;94.60;;;;;;5116032;28;20064;-69
2023/05/26 02:08:11;;;;;;;26.77;15.20;;;15.70;94.50;;;;;;5116739;28;20030;-69
2023/05/26 02:10:37;;;;;;;21.80;13.68;;;15.70;94.90;;;;;;5116132;28;20027;-69
2023/05/26 02:13:03;;;;;;;21.65;14.35;;;15.50;95.40;;;;;;5116560;28;20380;-69
2023/05/26 02:15:29;;;;;;;18.50;12.63;;;15.50;95.80;;;;;;5116063;28;20023;-69
2023/05/26 02:17:57;;;;;;;17.08;12.70;;;15.50;96.50;;;;;;5116512;28;20039;-69
2023/05/26 02:20:24;;;;;;;17.90;13.63;;;15.40;96.90;;;;;;5116526;28;20032;-69
2023/05/26 02:22:50;;;;;;;20.48;14.20;;;15.30;97.60;;;;;;5116415;28;20028;-69
2023/05/26 02:25:16;;;;;;;18.17;13.35;;;15.30;98.10;;;;;;5116383;28;20023;-69
2023/05/26 02:27:41;;;;;;;20.20;13.90;;;15.20;98.60;;;;;;5115903;28;20048;-69
2023/05/26 02:30:08;;;;;;;20.67;13.57;;;15.20;99.00;;;;;;5116034;28;20420;-69
2023/05/26 02:32:34;;;;;;;20.20;13.73;;;15.10;99.30;;;;;;5115699;28;20024;-69
2023/05/26 02:35:00;;;;;;;22.33;14.98;;;15.10;99.80;;;;;;5116044;28;20031;-69
2023/05/26 02:37:26;;;;;;;21.20;14.00;;;15.00;99.90;;;;;;5115726;28;20023;-70
2023/05/26 02:39:53;;;;;;;19.55;14.38;;;15.00;99.90;;;;;;5116145;28;20202;-69
2023/05/26 02:42:19;;;;;;;18.65;14.10;;;15.00;99.90;;;;;;5115986;28;20062;-68
2023/05/26 02:44:44;;;;;;;19.67;14.45;;;14.90;99.90;;;;;;5115293;28;20079;-68
2023/05/26 02:47:10;;;;;;;18.85;13.55;;;14.90;99.90;;;;;;5116047;28;20035;-69
2023/05/26 02:49:36;;;;;;;18.55;14.70;;;14.90;99.90;;;;;;5115833;28;20055;-69
2023/05/26 02:52:02;;;;;;;20.20;14.38;;;14.90;99.90;;;;;;5115622;28;20524;-69
2023/05/26 02:54:27;;;;;;;18.70;14.18;;;14.80;99.90;;;;;;5115192;28;20028;-70
2023/05/26 02:56:53;;;;;;;22.25;14.90;;;14.80;99.90;;;;;;5115469;28;20478;-70
2023/05/26 02:59:19;;;;;;;21.92;14.55;;;14.80;99.90;;;;;;5115792;28;20024;-69
2023/05/26 03:01:44;;;;;;;25.65;15.88;;;14.70;99.90;;;;;;5115376;28;20103;-69
2023/05/26 03:04:10;;;;;;;22.23;15.18;;;14.70;99.90;;;;;;5115246;28;20024;-69
2023/05/26 03:06:36;;;;;;;19.55;15.27;;;14.70;99.90;;;;;;5114580;28;20027;-69
2023/05/26 03:09:02;;;;;;;21.73;14.77;;;14.70;99.90;;;;;;5115155;28;20045;-69
2023/05/26 03:11:27;;;;;;;22.42;15.27;;;14.60;99.90;;;;;;5115624;28;20030;-69
2023/05/26 03:13:53;;;;;;;25.15;16.02;;;14.60;99.90;;;;;;5115351;28;20047;-69
2023/05/26 03:16:19;;;;;;;25.58;15.52;;;14.60;99.90;;;;;;5115384;28;20030;-69
2023/05/26 03:18:45;;;;;;;23.15;16.42;;;14.60;99.90;;;;;;5114973;28;20440;-69
2023/05/26 03:21:10;;;;;;;24.20;16.13;;;14.50;99.90;;;;;;5115470;28;20097;-69
2023/05/26 03:23:36;;;;;;;30.08;17.33;;;14.50;99.90;;;;;;5114265;28;20020;-70
2023/05/26 03:26:02;;;;;;;23.73;15.98;;;14.50;99.90;;;;;;5115325;28;20139;-69
2023/05/26 03:28:28;;;;;;;21.80;16.45;;;14.50;99.90;;;;;;5115280;27;20031;-69
2023/05/26 03:30:54;;;;;;;21.48;16.25;;;14.50;99.90;;;;;;5114658;28;20046;-69
2023/05/26 03:33:19;;;;;;;27.33;16.05;;;14.50;99.90;;;;;;5114759;28;20028;-69
2023/05/26 03:35:45;;;;;;;24.15;16.30;;;14.50;99.90;;;;;;5114649;28;20065;-69
2023/05/26 03:38:11;;;;;;;24.27;16.73;;;14.50;99.90;;;;;;5114935;28;20091;-69
2023/05/26 03:40:36;;;;;;;22.85;16.33;;;14.40;99.90;;;;;;5115653;28;20106;-70
2023/05/26 03:43:02;;;;;;;26.88;17.50;;;14.40;99.90;;;;;;5116801;28;20059;-69
2023/05/26 03:45:28;;;;;;;29.77;17.95;;;14.40;99.90;;;;;;5116706;28;20054;-69
2023/05/26 03:47:53;;;;;;;24.17;16.02;;;14.40;99.90;;;;;;5114982;28;20027;-68
2023/05/26 03:50:19;;;;;;;23.83;16.13;;;14.50;99.90;;;;;;5114630;28;20028;-68
2023/05/26 03:52:45;;;;;;;27.27;16.52;;;14.50;99.90;;;;;;5114383;28;20024;-68
2023/05/26 03:55:11;;;;;;;24.25;16.42;;;14.50;99.90;;;;;;5114787;28;20028;-68
2023/05/26 03:57:37;;;;;;;30.58;17.63;;;14.50;99.90;;;;;;5114243;27;20038;-69
2023/05/26 04:00:06;;;;;;;23.85;16.17;;;14.50;99.90;;;;;;5115346;28;20032;-70
2023/05/26 04:02:31;;;;;;;21.95;16.42;;;14.50;99.90;;;;;;5113043;28;20028;-69
2023/05/26 04:04:57;;;;;;;25.15;16.45;;;14.60;99.90;;;;;;5114242;28;20028;-70
2023/05/26 04:07:22;;;;;;;24.45;17.25;;;14.60;99.90;;;;;;5114401;28;20085;-68
2023/05/26 04:09:48;;;;;;;26.73;17.27;;;14.60;99.90;;;;;;5113913;28;20031;-68
2023/05/26 04:12:14;;;;;;;22.85;16.20;;;14.80;99.90;;;;;;5114245;28;20496;-68
2023/05/26 04:14:39;;;;;;;27.88;16.73;;;14.80;99.90;;;;;;5113818;28;20452;-71
2023/05/26 04:17:05;;;;;;;24.10;17.25;;;14.90;99.90;;;;;;5113931;28;20089;-69
2023/05/26 04:19:31;;;;;;;27.50;16.90;;;15.00;99.90;;;;;;5113822;28;20115;-70
2023/05/26 04:21:57;;;;;;;23.92;15.68;;;15.10;99.90;;;;;;5113481;28;20028;-68
2023/05/26 04:24:23;;;;;;;23.13;15.38;;;15.30;99.90;;;;;;5114027;28;20383;-68
2023/05/26 04:26:49;;;;;;;22.20;14.65;;;15.40;99.90;;;;;;5113891;28;20027;-68
2023/05/26 04:29:15;;;;;;;19.92;14.73;;;15.50;99.90;;;;;;5113689;28;20034;-69
2023/05/26 04:31:42;;;;;;;21.92;15.27;;;15.60;99.90;;;;;;5113481;28;20532;-68
2023/05/26 04:34:08;;;;;;;26.02;14.85;;;15.70;99.90;;;;;;5113775;28;20066;-69
2023/05/26 04:36:38;;;;;;;22.33;15.20;;;15.80;99.90;;;;;;5113597;28;20015;-70
2023/05/26 04:39:04;;;;;;;20.73;15.45;;;15.90;99.90;;;;;;5113421;28;20032;-69
2023/05/26 04:41:29;;;;;;;19.13;14.43;;;16.00;99.90;;;;;;5113359;28;20035;-69
2023/05/26 04:43:55;;;;;;;21.50;14.55;;;16.20;99.90;;;;;;5112859;28;20073;-69
2023/05/26 04:46:21;;;;;;;21.15;14.68;;;16.30;99.90;;;;;;5113349;28;20407;-69
2023/05/26 04:48:47;;;;;;;21.63;14.07;;;16.40;99.90;;;;;;5112926;28;20023;-70
2023/05/26 04:51:13;;;;;;;23.70;14.32;;;16.60;99.90;;;;;;5113329;28;20024;-70
2023/05/26 04:53:38;;;;;;;20.27;13.80;;;16.80;99.90;;;;;;5112858;28;20512;-73
2023/05/26 04:56:05;;;;;;;25.70;14.27;;;16.90;99.30;;;;;;5112980;28;20074;-69
2023/05/26 04:58:32;;;;;;;18.38;12.95;;;17.10;99.00;;;;;;5112713;28;20040;-69
2023/05/26 05:00:58;;;;;;;25.20;12.52;;;17.30;97.90;;;;;;5112564;28;20093;-69
2023/05/26 05:03:24;;;;;;;19.58;13.00;;;17.50;97.40;;;;;;5113146;28;20016;-69
2023/05/26 05:05:50;;;;;;;16.95;12.50;;;17.80;96.40;;;;;;5111213;28;20106;-69
2023/05/26 05:08:16;;;;;;;20.85;12.60;;;18.10;95.70;;;;;;5113219;28;20059;-69
2023/05/26 05:10:42;;;;;;;22.60;13.35;;;18.50;94.40;;;;;;5112583;28;20070;-70
2023/05/26 05:13:07;;;;;;;22.52;12.02;;;18.80;93.40;;;;;;5112982;28;20020;-69
2023/05/26 05:15:33;;;;;;;20.65;11.68;;;19.30;92.30;;;;;;5112765;28;20028;-69
2023/05/26 05:18:01;;;;;;;16.27;11.48;;;19.60;91.20;;;;;;5112336;28;20108;-68
2023/05/26 05:20:27;;;;;;;14.50;10.73;;;20.10;89.60;;;;;;5112825;28;20023;-68
2023/05/26 05:22:53;;;;;;;16.20;10.07;;;20.50;86.30;;;;;;5112127;28;20046;-69
2023/05/26 05:25:18;;;;;;;19.75;11.15;;;20.80;83.90;;;;;;5112314;28;20056;-69
2023/05/26 05:27:44;;;;;;;18.33;10.15;;;21.10;81.70;;;;;;5112040;28;20051;-70
2023/05/26 05:30:11;;;;;;;16.15;9.13;;;21.20;79.70;;;;;;5113207;28;20035;-69
2023/05/26 05:32:37;;;;;;;13.77;9.43;;;21.50;77.90;;;;;;5116988;28;20046;-69
2023/05/26 05:35:04;;;;;;;15.15;9.18;;;21.70;77.10;;;;;;5116370;28;20031;-70
2023/05/26 05:37:29;;;;;;;16.02;9.02;;;22.20;76.20;;;;;;5116526;28;20396;-70
2023/05/26 05:39:55;;;;;;;13.70;8.90;;;22.20;73.00;;;;;;5115014;28;20027;-69
2023/05/26 05:42:22;;;;;;;11.82;8.80;;;22.00;71.80;;;;;;5117119;28;20038;-69
2023/05/26 05:44:47;;;;;;;12.63;7.97;;;22.00;71.90;;;;;;5116342;28;20040;-69
2023/05/26 05:47:13;;;;;;;12.10;7.93;;;22.40;70.50;;;;;;5117400;28;20031;-69
2023/05/26 05:49:39;;;;;;;15.95;9.05;;;22.50;70.20;;;;;;5116906;28;20077;-69
2023/05/26 05:52:04;;;;;;;11.13;8.07;;;22.60;68.60;;;;;;5116369;28;20077;-69
2023/05/26 05:54:30;;;;;;;13.73;7.53;;;22.90;67.80;;;;;;5116890;28;20104;-70
2023/05/26 05:56:56;;;;;;;11.65;6.75;;;23.20;67.80;;;;;;5114763;28;20077;-70
2023/05/26 05:59:21;;;;;;;14.05;7.97;;;23.30;67.00;;;;;;5116497;28;20027;-70
2023/05/26 06:01:47;;;;;;;11.50;7.22;;;23.70;64.90;;;;;;5116412;28;20430;-70
2023/05/26 06:04:13;;;;;;;10.05;7.15;;;23.90;64.60;;;;;;5116565;28;20092;-70
2023/05/26 06:06:38;;;;;;;14.90;7.65;;;24.50;63.10;;;;;;5116610;28;20027;-69
2023/05/26 06:09:04;;;;;;;9.73;6.80;;;24.90;59.70;;;;;;5116036;28;20043;-70
2023/05/26 06:11:30;;;;;;;8.35;6.47;;;25.10;60.80;;;;;;5116266;28;20176;-70
2023/05/26 06:13:55;;;;;;;9.23;6.43;;;25.90;58.70;;;;;;5115722;28;20084;-69
2023/05/26 06:16:21;;;;;;;7.05;5.57;;;25.80;56.60;;;;;;5116026;28;20472;-70
2023/05/26 06:18:47;;;;;;;7.70;6.03;;;26.30;56.00;;;;;;5115335;28;20042;-70
2023/05/26 06:21:12;;;;;;;12.80;5.93;;;27.20;54.30;;;;;;5116027;28;20034;-69
2023/05/26 06:23:38;;;;;;;12.20;5.55;;;27.00;52.40;;;;;;5115970;28;20022;-69
2023/05/26 06:26:03;;;;;;;7.60;5.80;;;27.30;51.50;;;;;;5115990;28;20448;-70
2023/05/26 06:28:29;;;;;;;10.65;5.93;;;28.10;50.30;;;;;;5115899;28;20523;-67
2023/05/26 06:30:55;;;;;;;7.47;5.35;;;28.00;50.00;;;;;;5115247;28;20111;-70
2023/05/26 06:33:21;;;;;;;7.60;5.57;;;28.70;49.30;;;;;;5115467;28;20024;-70
2023/05/26 06:35:46;;;;;;;6.90;5.28;;;28.40;48.20;;;;;;5115376;28;20107;-73
2023/05/26 06:38:12;;;;;;;7.97;5.55;;;28.90;48.10;;;;;;5114212;28;20076;-69
2023/05/26 06:40:38;;;;;;;9.10;5.72;;;29.00;46.40;;;;;;5115711;28;20466;-69
2023/05/26 06:43:03;;;;;;;7.53;5.35;;;28.50;46.80;;;;;;5115029;28;20072;-69
2023/05/26 06:45:29;;;;;;;12.57;5.43;;;27.70;47.70;;;;;;5115484;28;20097;-69
2023/05/26 06:47:56;;;;;;;7.38;4.75;;;27.50;48.70;;;;;;5115195;28;20039;-70
2023/05/26 06:50:21;;;;;;;7.53;5.80;;;28.10;48.20;;;;;;5115667;28;20020;-68
2023/05/26 06:52:47;;;;;;;9.23;6.15;;;27.90;47.30;;;;;;5115633;28;20084;-69
2023/05/26 06:55:13;;;;;;;11.48;5.50;;;27.80;47.60;;;;;;5114066;28;20028;-69
2023/05/26 06:57:38;;;;;;;8.77;5.53;;;27.80;47.90;;;;;;5114127;28;20118;-68
2023/05/26 07:00:05;;;;;;;9.00;5.25;;;28.20;48.10;;;;;;5114913;28;20032;-69
2023/05/26 07:02:31;;;;;;;11.23;6.72;;;28.30;46.30;;;;;;5114695;28;20024;-68
2023/05/26 07:04:57;;;;;;;7.82;5.15;;;28.20;46.30;;;;;;5115305;28;20111;-70
2023/05/26 07:07:23;;;;;;;9.15;5.45;;;28.80;46.10;;;;;;5115295;28;20031;-69
2023/05/26 07:09:48;;;;;;;9.02;5.05;;;29.10;44.70;;;;;;5115250;28;20530;-68
2023/05/26 07:12:14;;;;;;;6.88;5.00;;;29.60;45.00;;;;;;5115488;28;20049;-68
2023/05/26 07:14:40;;;;;;;11.02;5.07;;;29.70;44.00;;;;;;5115015;28;20432;-68
2023/05/26 07:17:05;;;;;;;7.82;4.93;;;29.20;44.70;;;;;;5114720;28;20046;-69
2023/05/26 07:19:31;;;;;;;10.50;5.70;;;29.50;43.70;;;;;;5115104;28;20130;-70
2023/05/26 07:21:56;;;;;;;7.80;4.97;;;29.20;44.20;;;;;;5114444;28;20034;-70
2023/05/26 07:24:22;;;;;;;6.38;5.20;;;29.30;44.60;;;;;;5114873;28;20031;-68
2023/05/26 07:26:48;;;;;;;8.52;4.88;;;29.50;44.20;;;;;;5115015;28;20023;-68
2023/05/26 07:29:13;;;;;;;9.45;6.20;;;29.90;44.70;;;;;;5114313;28;20061;-68
2023/05/26 07:31:39;;;;;;;11.43;5.90;;;29.40;43.60;;;;;;5114553;28;20475;-68
2023/05/26 07:34:04;;;;;;;7.45;4.70;;;29.20;44.30;;;;;;5114549;28;20479;-68
2023/05/26 07:36:32;;;;;;;7.20;4.75;;;29.30;44.80;;;;;;5114596;28;20479;-68
2023/05/26 07:38:57;;;;;;;7.32;4.95;;;29.60;43.90;;;;;;5114039;28;20438;-69
2023/05/26 07:41:23;;;;;;;9.20;5.35;;;29.10;44.50;;;;;;5114611;28;20032;-68
2023/05/26 07:43:48;;;;;;;8.73;5.18;;;28.80;44.50;;;;;;5114799;28;20051;-68
2023/05/26 07:46:14;;;;;;;12.23;5.97;;;28.70;44.90;;;;;;5113782;28;20120;-68
2023/05/26 07:48:40;;;;;;;9.25;5.30;;;28.20;45.50;;;;;;5114345;28;20057;-68
2023/05/26 07:51:06;;;;;;;7.13;5.30;;;28.00;45.40;;;;;;5114173;28;20023;-68
2023/05/26 07:53:31;;;;;;;12.55;5.25;;;27.70;46.70;;;;;;5113626;28;20039;-68
2023/05/26 07:55:57;;;;;;;11.65;5.72;;;27.50;47.00;;;;;;5114077;28;20032;-68
2023/05/26 07:58:22;;;;;;;9.45;5.60;;;26.80;48.20;;;;;;5114580;28;20070;-68
2023/05/26 08:00:48;;;;;;;11.68;5.90;;;26.70;50.30;;;;;;5114296;28;20080;-69
2023/05/26 08:03:14;;;;;;;9.48;5.00;;;26.30;49.50;;;;;;5113886;28;20024;-68
2023/05/26 08:05:39;;;;;;;12.23;5.05;;;26.40;50.50;;;;;;5114221;28;20106;-68
2023/05/26 08:08:05;;;;;;;11.05;5.43;;;26.60;49.70;;;;;;5113848;28;20414;-69
2023/05/26 08:10:31;;;;;;;7.25;5.65;;;26.60;49.40;;;;;;5114272;28;20476;-69
2023/05/26 08:12:56;;;;;;;7.88;5.28;;;26.90;49.90;;;;;;5113591;28;20081;-69
2023/05/26 08:15:23;;;;;;;13.27;6.80;;;26.60;50.30;;;;;;5113930;28;20020;-69
2023/05/26 08:17:49;;;;;;;12.70;5.65;;;26.40;49.80;;;;;;5114047;28;20119;-68
2023/05/26 08:20:15;;;;;;;11.60;5.80;;;26.40;51.30;;;;;;5112095;28;20110;-69
2023/05/26 08:22:40;;;;;;;7.57;4.78;;;26.80;50.20;;;;;;5113860;28;20393;-69
2023/05/26 08:25:06;;;;;;;9.63;5.60;;;27.10;50.60;;;;;;5113473;28;20310;-68
2023/05/26 08:27:32;;;;;;;7.95;4.60;;;27.40;49.20;;;;;;5113841;28;20054;-68
2023/05/26 08:29:58;;;;;;;10.52;5.45;;;27.40;49.60;;;;;;5113506;28;20035;-69
2023/05/26 08:32:23;;;;;;;10.23;5.00;;;27.40;50.50;;;;;;5113918;28;20028;-69
2023/05/26 08:34:49;;;;;;;11.48;5.30;;;26.90;49.60;;;;;;5113464;28;20028;-69
2023/05/26 08:37:16;;;;;;;8.40;5.03;;;26.50;49.10;;;;;;5112969;28;20448;-69
2023/05/26 08:39:42;;;;;;;12.10;5.15;;;26.20;50.30;;;;;;5113562;28;20024;-69
2023/05/26 08:42:18;;;;;;;15.57;4.85;;;26.30;51.80;;;;;;5112809;28;20028;-69
2023/05/26 08:44:44;;;;;;;12.48;5.18;;;26.60;52.10;;;;;;5113127;28;20069;-69
2023/05/26 08:47:12;;;;;;;9.20;5.47;;;26.20;50.60;;;;;;5112990;28;20080;-68
2023/05/26 08:49:49;;;;;;;9.82;5.20;;;25.90;50.90;;;;;;5113327;28;20080;-68
2023/05/26 08:52:16;;;;;;;11.43;4.90;;;25.90;51.70;;;;;;5112997;28;20110;-68
2023/05/26 08:54:43;;;;;;;8.65;5.10;;;25.60;51.90;;;;;;5113305;28;20026;-68
2023/05/26 08:57:11;;;;;;;9.15;5.20;;;25.30;52.50;;;;;;5112872;28;20024;-70
2023/05/26 08:59:40;;;;;;;8.35;4.93;;;25.10;53.00;;;;;;5113118;28;20043;-69
2023/05/26 09:02:06;;;;;;;6.10;4.22;;;25.10;53.70;;;;;;5112540;28;20391;-69
2023/05/26 09:04:32;;;;;;;7.68;4.90;;;25.10;54.30;;;;;;5111653;28;20376;-68
2023/05/26 09:06:58;;;;;;;9.93;5.57;;;25.10;54.30;;;;;;5112804;28;20028;-72
2023/05/26 09:09:24;;;;;;;10.43;5.05;;;24.90;55.70;;;;;;5111935;28;20460;-68
2023/05/26 09:11:51;;;;;;;7.28;4.70;;;24.90;54.90;;;;;;5113278;28;20023;-68
2023/05/26 09:14:19;;;;;;;13.60;5.13;;;24.90;54.60;;;;;;5112824;28;20024;-69
2023/05/26 09:16:45;;;;;;;11.07;4.63;;;25.10;54.50;;;;;;5113104;28;20038;-69
2023/05/26 09:19:18;;;;;;;9.20;4.82;;;25.00;55.00;;;;;;5112703;28;20117;-69
2023/05/26 09:21:52;;;;;;;20.05;4.72;;;24.90;55.00;;;;;;5113071;28;20039;-69
2023/05/26 09:24:20;;;;;;;9.43;4.82;;;25.10;55.70;;;;;;5112655;28;20053;-69
2023/05/26 09:26:48;;;;;;;8.88;5.22;;;25.30;54.80;;;;;;5113029;28;20038;-68
2023/05/26 09:29:15;;;;;;;8.82;5.05;;;25.10;53.40;;;;;;5112127;28;20450;-68
2023/05/26 09:31:41;;;;;;;8.48;5.25;;;24.80;54.70;;;;;;5112492;28;20030;-68
2023/05/26 09:34:08;;;;;;;8.55;5.05;;;24.60;54.20;;;;;;5112751;28;20448;-69
2023/05/26 09:36:36;;;;;;;12.98;5.72;;;24.40;56.30;;;;;;5112940;28;20028;-69
2023/05/26 09:39:05;;;;;;;12.55;5.35;;;24.10;56.40;;;;;;5112410;28;20031;-68
2023/05/26 09:41:46;;;;;;;8.88;5.53;;;24.00;56.10;;;;;;5112642;28;20453;-68
2023/05/26 09:44:12;;;;;;;;;;;23.80;58.20;;;;;;5112772;28;20030;-68
2023/05/26 09:46:40;;;;;;;10.13;5.85;;;23.80;58.40;;;;;;5112927;28;20014;-69
2023/05/26 09:49:14;;;;;;;10.73;5.22;;;24.00;57.10;;;;;;5112197;28;20059;-69
2023/05/26 09:51:45;;;;;;;9.10;5.32;;;24.10;56.60;;;;;;5112426;28;20024;-69
2023/05/26 09:54:12;;;;;;;8.70;5.13;;;24.10;58.10;;;;;;5112438;28;20024;-69
2023/05/26 09:56:56;;;;;;;9.30;5.70;;;24.10;57.80;;;;;;5112385;28;20464;-68
2023/05/26 09:59:31;;;;;;;8.82;5.35;;;23.90;56.20;;;;;;5112168;28;20472;-69
2023/05/26 10:01:57;;;;;;;8.68;6.03;;;23.80;56.10;;;;;;5112882;28;20019;-69
2023/05/26 10:04:24;;;;;;;16.25;6.03;;;23.70;56.20;;;;;;5112009;28;20027;-70
2023/05/26 10:06:52;;;;;;;9.23;5.45;;;23.50;58.40;;;;;;5112968;28;20040;-69
2023/05/26 10:09:22;;;;;;;8.00;5.72;;;23.60;57.40;;;;;;5111913;28;20054;-69
2023/05/26 10:11:49;;;;;;;12.40;5.57;;;23.50;57.10;;;;;;5111511;28;20475;-69
2023/05/26 10:14:15;;;;;;;7.35;5.05;;;23.80;58.50;;;;;;5112200;28;20020;-69
2023/05/26 10:16:42;;;;;;;7.95;5.65;;;23.90;57.20;;;;;;5113768;28;20020;-69
2023/05/26 10:19:08;;;;;;;8.05;5.05;;;24.00;57.10;;;;;;5115821;28;20024;-69
2023/05/26 10:21:38;;;;;;;10.57;5.22;;;24.10;56.30;;;;;;5116352;28;20425;-69
2023/05/26 10:24:25;;;;;;;8.88;6.22;;;24.00;55.30;;;;;;5116117;28;20449;-72
2023/05/26 10:27:24;;;;;;;6.72;4.93;;;23.90;55.30;;;;;;5116232;28;20368;-69
2023/05/26 10:30:00;;;;;;;10.43;5.72;;;23.80;55.70;;;;;;5116129;28;20031;-69
2023/05/26 10:32:49;;;;;;;10.27;5.00;;;23.90;55.80;;;;;;5115597;28;20027;-69
2023/05/26 10:35:27;;;;;;;8.32;5.05;;;24.20;57.00;;;;;;5115853;28;20383;-69
2023/05/26 10:38:12;;;;;;;7.68;5.35;;;24.30;55.90;;;;;;5116015;28;20036;-69
2023/05/26 10:40:42;;;;;;;9.95;5.90;;;24.20;54.60;;;;;;5116277;28;20047;-69
2023/05/26 10:43:26;;;;;;;14.20;5.97;;;24.30;55.10;;;;;;5115542;28;20107;-69
2023/05/26 10:46:00;;;;;;;8.23;5.45;;;24.30;55.40;;;;;;5115453;28;20051;-69
2023/05/26 10:48:40;;;;;;;8.95;5.88;;;24.10;55.60;;;;;;5115606;27;20028;-69
2023/05/26 10:51:07;;;;;;;10.38;6.03;;;24.00;55.50;;;;;;5115601;28;20068;-71
2023/05/26 10:53:40;;;;;;;10.93;5.95;;;23.90;55.30;;;;;;5115680;28;20115;-69
2023/05/26 10:56:12;;;;;;;9.55;5.88;;;23.90;56.30;;;;;;5115116;28;20020;-70
2023/05/26 10:58:47;;;;;;;9.48;6.10;;;23.70;55.50;;;;;;5114716;28;20028;-68
2023/05/26 11:01:16;;;;;;;10.98;5.93;;;23.80;55.70;;;;;;5115104;28;20031;-69
2023/05/26 11:04:04;;;;;;;11.15;5.95;;;24.00;56.50;;;;;;5115380;28;20076;-69
2023/05/26 11:06:50;;;;;;;8.43;5.43;;;24.00;55.40;;;;;;5115567;28;20076;-68
2023/05/26 11:09:16;;;;;;;7.38;4.95;;;24.10;55.40;;;;;;5115584;28;20043;-68
2023/05/26 11:11:59;;;;;;;9.82;5.90;;;24.20;55.30;;;;;;5116023;28;20027;-68
2023/05/26 11:14:33;;;;;;;7.13;5.53;;;24.30;56.10;;;;;;5115147;28;20039;-68
2023/05/26 11:17:07;;;;;;;10.32;6.20;;;24.40;54.00;;;;;;5113744;28;20032;-68
2023/05/26 11:19:34;;;;;;;9.13;5.43;;;24.30;54.40;;;;;;5115110;28;20036;-68
2023/05/26 11:22:03;;;;;;;12.43;6.00;;;24.40;54.40;;;;;;5114894;28;20023;-69
2023/05/26 11:24:30;;;;;;;9.75;5.57;;;24.30;54.60;;;;;;5114715;28;20020;-68
2023/05/26 11:26:58;;;;;;;10.43;5.53;;;24.30;54.60;;;;;;5114893;28;20110;-68
2023/05/26 11:29:24;;;;;;;12.70;6.80;;;24.20;54.00;;;;;;5112313;28;20035;-69
2023/05/26 11:31:50;;;;;;;7.93;5.60;;;24.20;52.30;;;;;;5114822;28;20042;-68
2023/05/26 11:34:15;;;;;;;10.50;6.15;;;24.00;53.10;;;;;;5114403;28;20081;-68
2023/05/26 11:36:46;;;;;;;8.20;5.57;;;24.10;54.50;;;;;;5114116;28;20490;-68
2023/05/26 11:39:12;;;;;;;13.27;5.78;;;24.20;53.70;;;;;;5114301;28;20057;-69
2023/05/26 11:41:39;;;;;;;10.68;5.80;;;24.20;54.50;;;;;;5114654;28;20038;-69
2023/05/26 11:44:09;;;;;;;9.68;5.47;;;24.40;54.50;;;;;;5114680;28;20020;-69
2023/05/26 11:46:37;;;;;;;10.55;5.93;;;24.40;54.50;;;;;;5114167;28;20050;-69
2023/05/26 11:49:03;;;;;;;8.02;5.10;;;24.50;52.30;;;;;;5114489;28;20533;-69
2023/05/26 11:51:31;;;;;;;12.68;5.60;;;24.50;54.40;;;;;;5113865;28;20023;-69
2023/05/26 11:53:58;;;;;;;8.82;5.55;;;24.50;53.00;;;;;;5114127;28;20031;-68
2023/05/26 11:56:35;;;;;;;14.05;5.30;;;24.50;52.00;;;;;;5114013;28;20027;-69
2023/05/26 11:59:01;;;;;;;7.80;5.72;;;24.50;53.40;;;;;;5114259;28;20042;-69
2023/05/26 12:01:27;;;;;;;8.60;5.07;;;24.40;53.60;;;;;;5113671;28;20020;-69
2023/05/26 12:03:56;;;;;;;8.30;5.40;;;24.50;54.10;;;;;;5114422;28;20112;-69
2023/05/26 12:06:23;;;;;;;9.40;5.90;;;24.50;53.00;;;;;;5113878;28;20024;-69
2023/05/26 12:08:50;;;;;;;7.40;5.20;;;24.30;54.00;;;;;;5114226;28;20032;-69
2023/05/26 12:11:21;;;;;;;7.95;5.30;;;24.20;54.10;;;;;;5113651;28;20046;-70
2023/05/26 12:13:49;;;;;;;7.88;5.53;;;24.00;53.90;;;;;;5114232;28;20156;-69
2023/05/26 12:16:36;;;;;;;9.43;5.75;;;23.90;55.10;;;;;;5113608;28;20095;-69
2023/05/26 12:19:04;;;;;;;8.57;6.18;;;23.70;54.70;;;;;;5113953;28;20046;-68
2023/05/26 12:21:31;;;;;;;11.32;6.10;;;23.60;54.70;;;;;;5113533;28;20028;-68
2023/05/26 12:23:58;;;;;;;10.02;5.60;;;23.70;54.60;;;;;;5113923;28;20464;-68
2023/05/26 12:26:27;;;;;;;8.73;5.20;;;23.70;55.80;;;;;;5113443;28;20530;-68
2023/05/26 12:29:11;;;;;;;8.77;5.00;;;23.70;54.90;;;;;;5113873;28;20027;-68
2023/05/26 12:31:38;;;;;;;8.98;5.90;;;23.70;54.50;;;;;;5113349;28;20035;-69
2023/05/26 12:34:04;;;;;;;9.18;5.47;;;23.70;54.30;;;;;;5113802;28;20045;-69
2023/05/26 12:36:29;;;;;;;11.50;5.32;;;23.70;54.50;;;;;;5113573;28;20027;-69
2023/05/26 12:38:55;;;;;;;10.30;5.57;;;23.60;56.00;;;;;;5113186;28;20032;-68